Time;durP1;ratioP1;P1;durP2;ratioP2;P2;SDS_P1;SDS_P2;PMS_P1;PMS_P2;Temp;Humidity;BMP_temperature;BMP_pressure;BME280_temperature;BME280_humidity;BME280_pressure;Samples;Min_cycle;Max_cycle;Signal;HPM_P1;HPM_P2
2021/11/26 00:00:54;;;;;;;2.17;1.33;;;;;;;-1.33;91.06;98697.16;4966948;29;20028;-71
2021/11/26 00:03:19;;;;;;;5.20;1.55;;;;;;;-1.34;91.13;98695.44;4967058;29;20027;-72
2021/11/26 00:05:45;;;;;;;7.25;1.73;;;;;;;-1.32;91.28;98693.78;4966898;29;20110;-70
2021/11/26 00:08:10;;;;;;;3.92;1.67;;;;;;;-1.32;91.29;98690.38;4965831;29;20027;-71
2021/11/26 00:10:36;;;;;;;2.85;1.38;;;;;;;-1.31;91.36;98708.22;4966980;29;20074;-70
2021/11/26 00:13:04;;;;;;;2.97;1.27;;;;;;;-1.40;91.39;98696.22;4966277;28;20019;-71
2021/11/26 00:17:57;;;;;;;6.53;1.95;;;;;;;-1.32;91.66;98709.06;4966656;29;20507;-70
2021/11/26 00:20:22;;;;;;;2.83;1.30;;;;;;;-1.30;91.60;98707.38;4966618;29;20023;-69
2021/11/26 00:22:49;;;;;;;6.30;1.67;;;;;;;-1.31;91.61;98709.91;4966613;29;20423;-69
2021/11/26 00:25:14;;;;;;;5.82;1.73;;;;;;;-1.32;91.69;98701.41;4966662;29;20019;-70
2021/11/26 00:27:40;;;;;;;5.00;1.50;;;;;;;-1.35;91.67;98683.56;4966397;29;20028;-70
2021/11/26 00:30:06;;;;;;;2.20;1.52;;;;;;;-1.30;91.56;98692.13;4964975;29;20023;-70
2021/11/26 00:32:32;;;;;;;3.85;1.30;;;;;;;-1.30;91.57;98686.16;4948990;29;20015;-70
2021/11/26 00:34:57;;;;;;;4.25;1.38;;;;;;;-1.30;91.70;98689.56;4966410;29;20037;-70
2021/11/26 00:37:23;;;;;;;3.70;1.33;;;;;;;-1.41;91.75;98664.00;4980786;28;20023;-71
2021/11/26 00:39:49;;;;;;;2.60;1.20;;;;;;;-1.29;91.75;98678.53;4981211;28;20237;-70
2021/11/26 00:42:14;;;;;;;4.95;1.98;;;;;;;-1.28;91.80;98682.78;4948784;29;20102;-70
2021/11/26 00:44:40;;;;;;;5.03;1.50;;;;;;;-1.27;91.78;98681.09;4966074;29;20167;-70
2021/11/26 00:47:05;;;;;;;2.85;1.27;;;;;;;-1.29;91.85;98670.91;4966115;29;20023;-70
2021/11/26 00:49:30;;;;;;;7.40;1.98;;;;;;;-1.31;91.72;98669.19;4981157;28;20031;-69
2021/11/26 00:51:56;;;;;;;3.83;1.50;;;;;;;-1.28;91.78;98675.16;4964547;29;20015;-69
2021/11/26 00:54:21;;;;;;;5.35;1.55;;;;;;;-1.29;91.70;98664.94;4966063;29;20023;-69
2021/11/26 00:56:47;;;;;;;8.73;1.65;;;;;;;-1.31;91.64;98670.00;4965942;29;20023;-70
2021/11/26 00:59:12;;;;;;;5.80;1.50;;;;;;;-1.31;91.82;98676.81;4965758;29;20111;-69
2021/11/26 01:01:37;;;;;;;5.72;1.63;;;;;;;-1.32;91.57;98668.31;4965951;29;20031;-70
2021/11/26 01:04:03;;;;;;;4.60;1.23;;;;;;;-1.32;91.64;98678.50;4965799;29;20037;-69
2021/11/26 01:06:28;;;;;;;2.90;1.63;;;;;;;-1.30;91.66;98671.75;4964462;29;20019;-69
2021/11/26 01:08:54;;;;;;;6.95;1.33;;;;;;;-1.27;91.71;98669.22;4965758;29;20050;-69
2021/11/26 01:11:19;;;;;;;6.25;1.48;;;;;;;-1.26;91.59;98668.38;4965685;29;20107;-71
2021/11/26 01:13:45;;;;;;;6.03;1.52;;;;;;;-1.27;91.67;98655.63;4965740;29;20035;-70
2021/11/26 01:16:10;;;;;;;2.13;1.40;;;;;;;-1.22;91.63;98650.59;4965520;29;20023;-71
2021/11/26 01:18:35;;;;;;;4.93;1.40;;;;;;;-1.21;91.59;98650.59;4965603;29;20054;-70
2021/11/26 01:21:04;;;;;;;5.35;1.67;;;;;;;-1.22;91.55;98640.41;4965779;29;20043;-71
2021/11/26 01:23:29;;;;;;;5.70;1.70;;;;;;;-1.20;91.68;98644.69;4964297;28;20047;-71
2021/11/26 01:25:55;;;;;;;2.78;1.30;;;;;;;-1.27;91.58;98625.09;4964338;29;20554;-70
2021/11/26 01:28:20;;;;;;;4.22;1.20;;;;;;;-1.15;91.69;98645.56;4965592;29;20090;-70
2021/11/26 01:30:48;;;;;;;3.78;1.50;;;;;;;-1.21;91.82;98622.59;4965273;29;20027;-70
2021/11/26 01:33:15;;;;;;;3.92;1.58;;;;;;;-1.08;91.81;98630.34;4965533;29;20086;-71
2021/11/26 01:35:41;;;;;;;4.22;1.33;;;;;;;-1.06;91.71;98627.00;4965574;29;20027;-70
2021/11/26 01:38:08;;;;;;;10.15;1.80;;;;;;;-1.03;91.78;98633.81;4965478;29;20051;-70
2021/11/26 01:40:38;;;;;;;9.48;1.50;;;;;;;-1.18;91.76;98598.88;4965308;29;20023;-71
2021/11/26 01:43:06;;;;;;;3.92;1.70;;;;;;;-1.00;91.79;98623.66;4965287;29;20034;-70
2021/11/26 01:45:44;;;;;;;6.20;1.45;;;;;;;-1.02;91.79;98618.53;4965127;29;20089;-70
2021/11/26 01:48:10;;;;;;;4.05;1.73;;;;;;;-1.01;91.52;98615.16;4979971;28;20051;-71
2021/11/26 01:50:36;;;;;;;2.33;1.25;;;;;;;-1.03;91.57;98616.84;4963888;29;20019;-71
2021/11/26 01:53:01;;;;;;;2.38;1.05;;;;;;;-1.06;91.53;98611.72;4965301;29;20029;-69
2021/11/26 01:55:27;;;;;;;3.78;1.65;;;;;;;-1.08;91.70;98608.31;4965258;29;20031;-69
2021/11/26 01:57:52;;;;;;;4.15;1.33;;;;;;;-1.06;91.74;98603.22;4965213;29;20443;-69
2021/11/26 02:00:24;;;;;;;3.30;1.38;;;;;;;-1.16;91.68;98592.09;4965174;29;20027;-70
2021/11/26 02:02:50;;;;;;;5.43;2.10;;;;;;;-1.08;91.64;98615.94;4965353;28;20027;-71
2021/11/26 02:05:15;;;;;;;4.20;2.53;;;;;;;-1.09;91.80;98604.06;4947699;29;20042;-69
2021/11/26 02:07:41;;;;;;;7.18;1.70;;;;;;;-1.09;91.52;98603.19;4964899;29;20031;-69
2021/11/26 02:10:07;;;;;;;3.90;1.55;;;;;;;-1.11;91.55;98595.53;4963635;29;20031;-71
2021/11/26 02:12:32;;;;;;;4.97;1.67;;;;;;;-1.10;91.63;98594.69;4965038;29;20083;-70
2021/11/26 02:14:58;;;;;;;3.10;1.60;;;;;;;-1.12;91.72;98589.56;4979442;28;20071;-70
2021/11/26 02:17:25;;;;;;;6.60;1.65;;;;;;;-1.10;91.80;98601.50;4964626;29;20428;-70
2021/11/26 02:19:52;;;;;;;4.60;1.88;;;;;;;-1.14;91.57;98590.41;4965177;29;20046;-69
2021/11/26 02:22:18;;;;;;;8.30;1.88;;;;;;;-1.12;91.45;98589.56;4965024;29;20055;-70
2021/11/26 02:24:43;;;;;;;4.88;1.92;;;;;;;-1.25;91.58;98578.41;4965036;29;20075;-69
2021/11/26 02:27:08;;;;;;;4.70;1.70;;;;;;;-1.26;91.52;98579.25;4964627;29;20271;-68
2021/11/26 02:29:34;;;;;;;5.38;1.73;;;;;;;-1.17;91.54;98600.56;4964443;29;20059;-69
2021/11/26 02:31:59;;;;;;;2.53;1.40;;;;;;;-1.19;91.49;98595.47;4964734;29;20027;-69
2021/11/26 02:34:25;;;;;;;4.15;1.52;;;;;;;-1.19;91.39;98600.56;4979550;28;20103;-69
2021/11/26 02:36:50;;;;;;;5.03;1.80;;;;;;;-1.21;91.33;98604.78;4968087;29;20027;-69
2021/11/26 02:39:16;;;;;;;5.40;1.63;;;;;;;-1.25;91.26;98600.50;4968699;29;20030;-70
2021/11/26 02:41:43;;;;;;;5.32;1.70;;;;;;;-1.28;91.43;98593.66;4968293;29;20034;-69
2021/11/26 02:44:10;;;;;;;4.20;1.67;;;;;;;-1.30;91.37;98594.50;4968113;29;20027;-70
2021/11/26 02:46:36;;;;;;;5.40;1.60;;;;;;;-1.32;91.28;98597.03;4968160;29;20022;-70
2021/11/26 02:49:03;;;;;;;6.70;1.83;;;;;;;-1.36;91.42;98600.38;4968403;29;20483;-70
2021/11/26 02:51:28;;;;;;;5.40;1.77;;;;;;;-1.35;91.32;98607.19;4968477;29;20024;-71
2021/11/26 02:53:53;;;;;;;4.97;1.70;;;;;;;-1.40;91.39;98593.53;4968477;29;20054;-68
2021/11/26 02:56:19;;;;;;;4.72;2.25;;;;;;;-1.40;91.15;98589.31;4968339;29;20030;-70
2021/11/26 02:58:45;;;;;;;6.88;1.92;;;;;;;-1.43;91.49;98583.31;4968117;29;20215;-70
2021/11/26 03:01:11;;;;;;;4.43;1.42;;;;;;;-1.49;91.44;98579.03;4967852;29;20046;-69
2021/11/26 03:03:36;;;;;;;5.50;1.70;;;;;;;-1.42;91.49;98585.06;4982781;28;20046;-69
2021/11/26 03:06:05;;;;;;;5.47;2.00;;;;;;;-1.41;91.46;98586.75;4950769;29;20360;-72
2021/11/26 03:08:31;;;;;;;5.90;1.65;;;;;;;-1.43;91.44;98588.41;4967932;29;20301;-70
2021/11/26 03:10:59;;;;;;;19.70;4.85;;;;;;;-1.43;91.37;98585.88;4967469;29;20030;-69
2021/11/26 03:13:24;;;;;;;4.93;1.90;;;;;;;-1.53;91.35;98573.03;4967896;29;20027;-69
2021/11/26 03:15:51;;;;;;;3.85;1.70;;;;;;;-1.45;91.31;98585.84;4967756;29;20086;-69
2021/11/26 03:18:18;;;;;;;5.43;1.98;;;;;;;-1.59;91.35;98564.47;4950178;29;20051;-69
2021/11/26 03:20:45;;;;;;;2.13;1.40;;;;;;;-1.46;91.50;98583.28;4950616;29;20031;-69
2021/11/26 03:23:11;;;;;;;3.78;1.92;;;;;;;-1.58;91.41;98569.59;4968043;29;20019;-69
2021/11/26 03:25:37;;;;;;;3.72;2.05;;;;;;;-1.46;91.48;98581.59;4967753;29;20058;-69
2021/11/26 03:28:03;;;;;;;6.80;2.13;;;;;;;-1.44;91.63;98582.50;4950181;29;20028;-69
2021/11/26 03:30:28;;;;;;;3.03;1.80;;;;;;;-1.42;91.54;98587.59;4967417;29;20027;-70
2021/11/26 03:32:56;;;;;;;4.75;1.77;;;;;;;-1.52;91.60;98568.81;4967485;29;20069;-70
2021/11/26 03:35:22;;;;;;;4.55;2.03;;;;;;;-1.42;91.62;98585.06;4967420;29;20030;-69
2021/11/26 03:37:48;;;;;;;6.57;1.85;;;;;;;-1.42;91.65;98580.78;4967421;29;20019;-70
2021/11/26 03:40:15;;;;;;;7.53;1.75;;;;;;;-1.48;91.73;98564.59;4967464;29;20055;-69
2021/11/26 03:42:41;;;;;;;4.35;1.73;;;;;;;-1.41;91.75;98574.88;4967320;29;20031;-69
2021/11/26 03:45:07;;;;;;;6.97;2.15;;;;;;;-1.46;91.84;98570.56;4949883;29;20023;-69
2021/11/26 03:47:33;;;;;;;4.53;1.73;;;;;;;-1.41;91.79;98576.56;4948743;29;20023;-69
2021/11/26 03:49:59;;;;;;;7.32;1.70;;;;;;;-1.41;91.72;98572.34;4967444;29;20034;-69
2021/11/26 03:52:24;;;;;;;4.80;1.70;;;;;;;-1.41;91.62;98566.38;4967497;29;20051;-70
2021/11/26 03:54:50;;;;;;;6.45;1.95;;;;;;;-1.50;91.60;98562.91;4967090;29;20078;-70
2021/11/26 03:57:15;;;;;;;2.85;1.85;;;;;;;-1.44;91.68;98564.66;4982011;28;20050;-70
2021/11/26 03:59:41;;;;;;;3.28;1.60;;;;;;;-1.46;91.55;98562.94;4967049;29;20027;-70
2021/11/26 04:02:08;;;;;;;7.25;2.20;;;;;;;-1.47;91.73;98571.41;4966907;29;20027;-73
2021/11/26 04:04:33;;;;;;;10.05;1.88;;;;;;;-1.51;91.63;98563.75;4949785;29;20479;-69
2021/11/26 04:06:59;;;;;;;7.32;1.80;;;;;;;-1.55;91.53;98566.25;4966973;29;20027;-69
2021/11/26 04:09:24;;;;;;;4.25;1.42;;;;;;;-1.56;91.68;98570.47;4966985;29;20423;-69
2021/11/26 04:11:49;;;;;;;6.93;2.70;;;;;;;-1.59;91.57;98567.03;4967119;29;20079;-69
2021/11/26 04:14:15;;;;;;;8.55;2.10;;;;;;;-1.60;91.67;98573.81;4966619;29;20086;-69
2021/11/26 04:16:41;;;;;;;6.15;1.58;;;;;;;-1.61;91.64;98559.38;4966495;29;20088;-70
2021/11/26 04:19:06;;;;;;;7.38;2.00;;;;;;;-1.60;91.59;98568.75;4967081;29;20027;-69
2021/11/26 04:21:33;;;;;;;4.28;1.88;;;;;;;-1.62;91.64;98568.72;4967006;29;20126;-68
2021/11/26 04:24:02;;;;;;;7.85;1.67;;;;;;;-1.65;91.67;98568.69;4981495;28;20034;-69
2021/11/26 04:26:28;;;;;;;4.72;2.00;;;;;;;-1.65;91.55;98568.69;4966696;29;20443;-70
2021/11/26 04:28:53;;;;;;;8.30;2.03;;;;;;;-1.66;91.47;98571.22;4966530;29;20031;-69
2021/11/26 04:31:19;;;;;;;4.75;1.70;;;;;;;-1.67;91.41;98574.56;4966454;29;20483;-69
2021/11/26 04:33:44;;;;;;;7.70;1.60;;;;;;;-1.69;91.39;98561.00;4966519;29;20046;-69
2021/11/26 04:36:10;;;;;;;6.00;1.77;;;;;;;-1.72;91.51;98560.94;4966335;29;20027;-69
2021/11/26 04:38:35;;;;;;;4.45;1.50;;;;;;;-1.73;91.31;98557.56;4966495;29;20051;-69
2021/11/26 04:41:01;;;;;;;7.10;1.65;;;;;;;-1.74;91.27;98560.94;4966193;29;20234;-69
2021/11/26 04:43:26;;;;;;;8.57;1.70;;;;;;;-1.84;91.31;98548.94;4966166;29;20058;-69
2021/11/26 04:45:52;;;;;;;5.32;1.73;;;;;;;-1.81;91.40;98557.47;4965887;29;20027;-69
2021/11/26 04:48:19;;;;;;;3.85;1.85;;;;;;;-1.99;91.03;98525.03;4966514;29;20024;-69
2021/11/26 04:50:45;;;;;;;4.20;1.90;;;;;;;-1.85;91.18;98548.09;4966068;29;20019;-69
2021/11/26 04:53:11;;;;;;;6.57;1.67;;;;;;;-1.94;91.06;98538.66;4966021;29;20035;-69
2021/11/26 04:55:36;;;;;;;5.60;1.27;;;;;;;-1.87;91.06;98548.06;4965918;29;20042;-69
2021/11/26 04:58:02;;;;;;;1.30;1.02;;;;;;;-1.85;90.72;98547.25;4965498;28;20055;-69
2021/11/26 05:00:28;;;;;;;2.65;1.30;;;;;;;-1.82;90.37;98544.75;4965822;29;20034;-69
2021/11/26 05:02:54;;;;;;;3.03;1.23;;;;;;;-1.90;90.75;98555.66;4965920;29;20292;-70
2021/11/26 05:05:19;;;;;;;6.32;2.10;;;;;;;-1.93;91.14;98545.44;4965957;29;20035;-70
2021/11/26 05:07:45;;;;;;;6.82;1.60;;;;;;;-1.92;91.08;98548.84;4965806;29;20023;-71
2021/11/26 05:10:13;;;;;;;4.22;1.77;;;;;;;-1.97;91.10;98545.41;4965833;29;20058;-70
2021/11/26 05:12:43;;;;;;;6.53;2.20;;;;;;;-1.96;91.33;98542.00;4965747;29;20091;-70
2021/11/26 05:15:09;;;;;;;3.30;2.08;;;;;;;-1.98;91.39;98538.63;4980180;28;20028;-70
2021/11/26 05:17:34;;;;;;;5.35;1.90;;;;;;;-1.96;91.10;98534.38;4965440;29;20050;-70
2021/11/26 05:20:02;;;;;;;7.72;2.33;;;;;;;-2.05;91.12;98524.97;4965904;29;20454;-70
2021/11/26 05:22:27;;;;;;;6.18;2.22;;;;;;;-2.07;91.26;98540.19;4964243;29;20023;-69
2021/11/26 05:24:52;;;;;;;6.78;2.88;;;;;;;-2.09;91.49;98535.94;4965317;29;20031;-70
2021/11/26 05:27:18;;;;;;;9.88;2.60;;;;;;;-2.09;91.56;98531.69;4965241;29;20035;-69
2021/11/26 05:29:43;;;;;;;10.88;2.30;;;;;;;-2.07;91.51;98534.25;4965078;29;20169;-70
2021/11/26 05:32:12;;;;;;;5.07;2.40;;;;;;;-2.10;91.64;98534.22;4965353;29;20055;-70
2021/11/26 05:34:38;;;;;;;7.85;2.42;;;;;;;-2.16;91.66;98523.16;4965389;29;20038;-70
2021/11/26 05:37:04;;;;;;;5.90;2.47;;;;;;;-2.09;91.64;98536.78;4947844;29;20028;-70
2021/11/26 05:39:29;;;;;;;4.60;2.08;;;;;;;-2.07;91.66;98539.34;4965264;29;20054;-70
2021/11/26 05:41:54;;;;;;;6.35;2.75;;;;;;;-2.08;91.72;98548.66;4947824;29;20027;-70
2021/11/26 05:44:20;;;;;;;7.60;3.00;;;;;;;-2.10;91.65;98547.78;4979741;28;20019;-70
2021/11/26 05:46:45;;;;;;;7.75;3.05;;;;;;;-2.09;91.64;98551.19;4965139;29;20031;-69
2021/11/26 05:49:10;;;;;;;9.73;2.90;;;;;;;-2.19;91.55;98529.88;4965084;29;20357;-69
2021/11/26 05:51:36;;;;;;;7.72;1.83;;;;;;;-2.07;91.58;98541.88;4965180;29;20542;-70
2021/11/26 05:54:01;;;;;;;4.78;2.15;;;;;;;-2.12;91.60;98542.69;4963870;29;20047;-70
2021/11/26 05:56:27;;;;;;;4.80;2.22;;;;;;;-2.09;91.79;98541.84;4965084;29;20027;-70
2021/11/26 05:58:52;;;;;;;3.47;2.10;;;;;;;-2.06;91.67;98551.25;4979766;28;20031;-72
2021/11/26 06:01:18;;;;;;;5.68;2.58;;;;;;;-2.06;91.36;98546.16;4964842;29;20023;-69
2021/11/26 06:03:43;;;;;;;7.28;2.38;;;;;;;-2.07;91.49;98542.75;4965022;29;20055;-70
2021/11/26 06:06:09;;;;;;;6.22;3.13;;;;;;;-2.10;91.47;98534.22;4965015;29;20507;-70
2021/11/26 06:08:34;;;;;;;13.50;2.70;;;;;;;-2.13;91.65;98532.50;4979784;28;20027;-72
2021/11/26 06:11:00;;;;;;;3.15;1.75;;;;;;;-2.14;91.59;98528.25;4946790;29;20039;-71
2021/11/26 06:13:25;;;;;;;4.88;1.83;;;;;;;-2.33;91.59;98497.50;4964961;29;20027;-72
2021/11/26 06:15:50;;;;;;;4.50;2.30;;;;;;;-2.29;91.54;98509.44;4964792;29;20480;-72
2021/11/26 06:18:16;;;;;;;7.10;3.10;;;;;;;-2.18;91.58;98522.28;4964712;29;20049;-72
2021/11/26 06:20:41;;;;;;;10.00;2.95;;;;;;;-2.16;91.61;98514.66;4964904;29;20023;-72
2021/11/26 06:23:06;;;;;;;5.10;1.70;;;;;;;-2.18;91.67;98516.31;4964841;29;20027;-72
2021/11/26 06:25:32;;;;;;;9.57;3.22;;;;;;;-2.26;91.50;98494.22;4963431;29;20020;-72
2021/11/26 06:27:58;;;;;;;9.38;3.35;;;;;;;-2.16;91.55;98518.06;4964663;29;20047;-72
2021/11/26 06:30:24;;;;;;;5.35;2.53;;;;;;;-2.15;91.76;98517.22;4963275;29;20038;-73
2021/11/26 06:32:51;;;;;;;5.70;3.08;;;;;;;-2.21;91.70;98501.91;4964795;29;20027;-70
2021/11/26 06:35:20;;;;;;;1.73;1.40;;;;;;;-2.10;91.90;98516.41;4963346;29;20315;-70
2021/11/26 06:37:46;;;;;;;6.30;3.20;;;;;;;-2.07;92.03;98517.31;4964730;29;20023;-72
2021/11/26 06:40:12;;;;;;;11.07;3.88;;;;;;;-2.15;92.03;98504.50;4964861;29;20027;-71
2021/11/26 06:42:38;;;;;;;3.53;1.70;;;;;;;-2.05;91.82;98522.41;4964436;29;20023;-72
2021/11/26 06:45:05;;;;;;;7.68;2.67;;;;;;;-2.09;91.57;98513.06;4964347;29;20035;-72
2021/11/26 06:47:31;;;;;;;5.63;2.30;;;;;;;-2.16;91.55;98500.28;4964756;29;20027;-72
2021/11/26 06:49:56;;;;;;;8.50;2.40;;;;;;;-2.14;91.23;98500.28;4964881;29;20046;-71
2021/11/26 06:52:22;;;;;;;11.00;3.58;;;;;;;-2.08;91.28;98527.47;4964687;29;20026;-71
2021/11/26 06:54:47;;;;;;;10.10;3.50;;;;;;;-2.07;91.46;98527.47;4964797;29;20074;-73
2021/11/26 06:57:13;;;;;;;4.45;1.40;;;;;;;-2.15;91.56;98509.59;4964426;29;20027;-71
2021/11/26 06:59:38;;;;;;;1.90;1.45;;;;;;;-2.04;91.44;98524.97;4964262;29;20027;-70
2021/11/26 07:02:05;;;;;;;8.13;2.65;;;;;;;-2.06;91.23;98524.09;4963006;29;20035;-70
2021/11/26 07:04:30;;;;;;;4.97;2.03;;;;;;;-2.04;90.69;98522.44;4964316;29;20329;-70
2021/11/26 07:06:55;;;;;;;4.53;1.33;;;;;;;-2.08;90.89;98525.78;4964499;29;20057;-71
2021/11/26 07:09:21;;;;;;;7.03;3.00;;;;;;;-2.05;90.48;98533.44;4964547;29;20118;-71
2021/11/26 07:11:46;;;;;;;6.95;3.65;;;;;;;-2.11;90.79;98538.47;4964797;29;20086;-71
2021/11/26 07:14:12;;;;;;;10.32;4.35;;;;;;;-2.16;91.16;98542.63;4964541;29;20047;-71
2021/11/26 07:16:37;;;;;;;5.72;3.70;;;;;;;-2.24;91.42;98523.03;4964328;29;20047;-71
2021/11/26 07:19:03;;;;;;;9.02;3.70;;;;;;;-2.13;91.58;98540.13;4946903;29;20047;-71
2021/11/26 07:21:29;;;;;;;7.18;1.95;;;;;;;-2.01;90.93;98540.28;4965482;28;20102;-71
2021/11/26 07:23:55;;;;;;;6.88;2.92;;;;;;;-2.12;90.41;98521.47;4967776;29;20026;-72
2021/11/26 07:26:22;;;;;;;6.88;2.75;;;;;;;-2.17;90.42;98523.13;4967849;29;20083;-71
2021/11/26 07:28:47;;;;;;;9.75;3.70;;;;;;;-2.16;89.97;98524.81;4967611;29;20055;-71
2021/11/26 07:31:13;;;;;;;9.32;4.20;;;;;;;-2.15;90.36;98541.78;4967413;29;20023;-71
2021/11/26 07:33:38;;;;;;;10.82;3.63;;;;;;;-2.19;90.76;98520.53;4967579;29;20038;-71
2021/11/26 07:36:06;;;;;;;1.70;1.20;;;;;;;-2.15;90.76;98519.75;4967358;29;20078;-71
2021/11/26 07:38:32;;;;;;;1.90;1.33;;;;;;;-2.10;90.59;98527.44;4967432;29;20103;-71
2021/11/26 07:40:57;;;;;;;3.40;1.48;;;;;;;-2.09;90.50;98526.59;4967503;29;20110;-71
2021/11/26 07:43:23;;;;;;;2.08;1.50;;;;;;;-2.03;90.08;98530.94;4967592;29;20038;-71
2021/11/26 07:45:48;;;;;;;2.08;1.15;;;;;;;-1.97;90.12;98535.22;4967111;29;20038;-71
2021/11/26 07:48:14;;;;;;;0.90;0.90;;;;;;;-2.02;89.69;98530.94;4950059;29;20031;-71
2021/11/26 07:50:39;;;;;;;7.75;2.92;;;;;;;-2.16;90.43;98535.00;4967345;29;20535;-71
2021/11/26 07:53:05;;;;;;;4.47;2.55;;;;;;;-2.10;90.36;98522.38;4967353;29;20038;-71
2021/11/26 07:55:30;;;;;;;1.85;1.48;;;;;;;-2.18;90.33;98512.09;4967546;29;20027;-71
2021/11/26 07:57:55;;;;;;;5.00;2.75;;;;;;;-2.22;90.52;98515.41;4967088;28;20034;-71
2021/11/26 08:00:21;;;;;;;6.63;1.63;;;;;;;-2.08;90.53;98525.78;4967164;29;20059;-71
2021/11/26 08:02:46;;;;;;;1.90;1.10;;;;;;;-1.90;89.81;98526.84;4967256;29;20027;-72
2021/11/26 08:05:12;;;;;;;5.13;2.42;;;;;;;-1.94;89.68;98530.16;4967395;29;20422;-71
2021/11/26 08:07:38;;;;;;;6.28;2.70;;;;;;;-2.03;90.00;98524.13;4966960;29;20027;-71
2021/11/26 08:10:09;;;;;;;6.43;2.53;;;;;;;-2.09;90.65;98518.97;4967370;29;20034;-71
2021/11/26 08:12:36;;;;;;;7.38;2.92;;;;;;;-2.09;91.27;98518.13;4949871;29;20486;-71
2021/11/26 08:15:02;;;;;;;4.32;1.23;;;;;;;-1.87;90.81;98521.78;4966804;29;20104;-71
2021/11/26 08:17:27;;;;;;;3.35;1.55;;;;;;;-1.89;90.25;98523.47;4965589;29;20047;-70
2021/11/26 08:19:53;;;;;;;2.75;1.35;;;;;;;-1.87;90.38;98514.16;4967060;29;20054;-70
2021/11/26 08:22:18;;;;;;;2.60;1.67;;;;;;;-1.82;90.31;98521.84;4966611;29;20027;-71
2021/11/26 08:24:44;;;;;;;2.78;1.45;;;;;;;-1.95;90.51;98500.50;4966532;29;20498;-70
2021/11/26 08:27:09;;;;;;;4.95;2.70;;;;;;;-1.79;90.58;98515.06;4965348;29;20126;-72
2021/11/26 08:29:35;;;;;;;3.08;1.80;;;;;;;-1.75;90.74;98506.66;4965367;29;20055;-71
2021/11/26 08:32:00;;;;;;;3.40;2.08;;;;;;;-1.66;90.35;98505.06;4966515;28;20529;-71
2021/11/26 08:34:25;;;;;;;3.95;2.05;;;;;;;-1.64;90.72;98511.84;4966346;29;20031;-70
2021/11/26 08:36:51;;;;;;;2.85;1.95;;;;;;;-1.51;90.49;98510.28;4966895;29;20380;-71
2021/11/26 08:39:16;;;;;;;3.72;2.22;;;;;;;-1.46;90.76;98512.88;4966472;29;20490;-72
2021/11/26 08:41:42;;;;;;;1.13;1.00;;;;;;;-1.23;90.64;98509.69;4966741;29;20042;-71
2021/11/26 08:44:07;;;;;;;2.10;1.75;;;;;;;-1.09;91.04;98506.41;4966567;29;20108;-71
2021/11/26 08:46:33;;;;;;;2.83;2.25;;;;;;;-0.72;91.48;98509.25;4966290;29;20047;-71
2021/11/26 08:48:59;;;;;;;3.35;1.95;;;;;;;-0.03;89.89;98502.78;4966151;29;20031;-72
2021/11/26 08:51:27;;;;;;;3.67;1.88;;;;;;;0.36;89.82;98512.25;4966552;29;20062;-72
2021/11/26 08:53:52;;;;;;;3.13;1.63;;;;;;;0.96;88.45;98514.03;4966152;29;20031;-72
2021/11/26 08:56:21;;;;;;;5.60;1.17;;;;;;;1.22;86.80;98512.31;4981280;28;20027;-72
2021/11/26 08:58:47;;;;;;;1.58;1.08;;;;;;;1.36;86.14;98479.06;4948655;29;20027;-72
2021/11/26 09:01:15;;;;;;;1.20;0.95;;;;;;;1.78;83.89;98504.53;4966039;29;20110;-71
2021/11/26 09:03:40;;;;;;;2.13;1.40;;;;;;;1.85;83.98;98500.25;4966413;29;20103;-72
2021/11/26 09:06:06;;;;;;;2.97;1.45;;;;;;;2.16;83.15;98502.66;4966018;29;20090;-72
2021/11/26 09:08:31;;;;;;;4.20;1.15;;;;;;;2.41;81.63;98488.88;4966044;29;20027;-72
2021/11/26 09:10:57;;;;;;;4.20;1.75;;;;;;;2.56;80.14;98495.59;4965875;29;20186;-71
2021/11/26 09:13:23;;;;;;;3.72;1.50;;;;;;;2.84;80.04;98498.81;4966003;29;20632;-72
2021/11/26 09:15:48;;;;;;;3.85;1.17;;;;;;;2.87;79.91;98489.41;4965764;29;20567;-72
2021/11/26 09:18:15;;;;;;;2.70;1.30;;;;;;;3.00;78.36;98502.97;4945165;29;20063;-71
2021/11/26 09:20:43;;;;;;;3.00;1.42;;;;;;;2.74;79.47;98492.06;4946351;28;20028;-70
2021/11/26 09:23:10;;;;;;;1.27;0.88;;;;;;;2.70;79.61;98487.84;4946571;29;20015;-71
2021/11/26 09:25:36;;;;;;;1.83;0.88;;;;;;;2.56;78.51;98493.91;4961314;28;20031;-71
2021/11/26 09:28:01;;;;;;;2.15;0.80;;;;;;;2.42;78.39;98494.00;4946542;29;20024;-71
2021/11/26 09:30:29;;;;;;;1.80;1.00;;;;;;;2.41;79.02;98484.59;4946133;29;20030;-71
2021/11/26 09:32:55;;;;;;;1.45;1.10;;;;;;;2.64;78.47;98488.72;4946308;29;20123;-71
2021/11/26 09:35:21;;;;;;;4.20;1.30;;;;;;;2.91;79.18;98504.75;4945114;29;20070;-71
2021/11/26 09:37:48;;;;;;;3.13;1.33;;;;;;;3.61;79.16;98487.84;4946446;29;20047;-71
2021/11/26 09:40:15;;;;;;;3.17;0.98;;;;;;;4.31;76.35;98491.31;4946668;29;20051;-71
2021/11/26 09:42:42;;;;;;;1.92;1.15;;;;;;;4.75;73.82;98491.50;4946379;29;20031;-71
2021/11/26 09:45:11;;;;;;;1.60;1.10;;;;;;;4.95;73.45;98488.63;4944733;29;20035;-71
2021/11/26 09:47:37;;;;;;;2.15;0.95;;;;;;;5.40;72.75;98481.84;4961130;28;20029;-72
2021/11/26 09:50:03;;;;;;;1.35;1.23;;;;;;;5.86;71.46;98478.44;4946235;29;20024;-71
2021/11/26 09:52:28;;;;;;;2.60;1.25;;;;;;;6.01;71.06;98482.41;4946176;29;20023;-72
2021/11/26 09:54:54;;;;;;;1.35;0.80;;;;;;;6.20;68.12;98481.19;4946179;29;20135;-72
2021/11/26 09:57:19;;;;;;;0.55;0.55;;;;;;;5.99;67.44;98476.47;4946221;29;20030;-72
2021/11/26 09:59:45;;;;;;;1.08;0.90;;;;;;;5.68;69.11;98471.06;4945869;29;20027;-72
2021/11/26 10:02:20;;;;;;;2.40;1.00;;;;;;;5.67;68.68;98479.63;4946136;29;20039;-72
2021/11/26 10:05:06;;;;;;;1.38;0.90;;;;;;;5.36;67.77;98479.38;4946137;29;20087;-72
2021/11/26 10:07:42;;;;;;;0.77;0.65;;;;;;;4.99;70.13;98475.72;4946112;29;20023;-72
2021/11/26 10:10:10;;;;;;;2.15;1.17;;;;;;;4.64;72.08;98465.13;4944788;29;20539;-73
2021/11/26 10:12:35;;;;;;;3.00;1.10;;;;;;;4.57;72.06;98477.22;4945634;29;20028;-74
2021/11/26 10:15:00;;;;;;;2.38;0.95;;;;;;;4.19;71.35;98470.03;4945563;29;20051;-74
2021/11/26 10:17:26;;;;;;;1.95;0.90;;;;;;;3.54;73.80;98464.00;4951745;29;20239;-75
2021/11/26 10:19:57;;;;;;;2.75;0.80;;;;;;;3.13;75.37;98462.72;4964786;29;20023;-73
2021/11/26 10:22:42;;;;;;;2.72;1.45;;;;;;;2.87;77.63;98451.81;4964784;29;20062;-74
2021/11/26 10:25:16;;;;;;;0.85;0.70;;;;;;;3.03;78.50;98460.22;4965005;29;20053;-73
2021/11/26 10:27:48;;;;;;;1.00;0.85;;;;;;;2.83;77.95;98457.81;4964928;29;20024;-74
2021/11/26 10:30:28;;;;;;;1.83;1.00;;;;;;;2.51;77.66;98458.94;4964974;29;20020;-74
2021/11/26 10:33:00;;;;;;;3.80;1.20;;;;;;;2.17;79.20;98457.44;4964925;29;20023;-74
2021/11/26 10:35:27;;;;;;;3.35;1.23;;;;;;;1.90;80.70;98438.81;4964930;29;20031;-74
2021/11/26 10:38:18;;;;;;;1.15;0.90;;;;;;;2.03;81.01;98457.53;4964317;29;20027;-74
2021/11/26 10:40:49;;;;;;;1.20;0.75;;;;;;;1.90;80.74;98472.09;4961615;29;20023;-74
2021/11/26 10:43:18;;;;;;;1.73;1.02;;;;;;;1.75;81.11;98460.19;4961855;29;20511;-74
2021/11/26 10:59:10;;;;;;;2.47;1.15;;;;;;;1.68;80.50;98467.88;4968215;29;20391;-74
2021/11/26 11:01:44;;;;;;;1.23;1.05;;;;;;;1.91;78.69;98472.06;4968006;29;20539;-76
2021/11/26 11:04:17;;;;;;;2.20;1.40;;;;;;;2.08;78.24;98473.69;4968208;29;20038;-77
2021/11/26 11:06:43;;;;;;;6.22;1.70;;;;;;;2.22;78.93;98471.91;4968327;29;20038;-75
2021/11/26 11:09:11;;;;;;;3.00;1.42;;;;;;;2.69;78.64;98473.31;4983000;28;20031;-74
2021/11/26 11:11:49;;;;;;;3.63;1.48;;;;;;;3.09;77.83;98464.44;4968237;29;20034;-75
2021/11/26 11:14:18;;;;;;;2.60;1.38;;;;;;;3.50;76.75;98458.91;4968248;29;20023;-76
2021/11/26 11:16:51;;;;;;;2.15;1.40;;;;;;;3.80;74.80;98464.56;4967707;29;20110;-75
2021/11/26 11:19:17;;;;;;;1.42;0.88;;;;;;;3.25;75.58;98461.72;4967732;29;20514;-75
2021/11/26 11:21:47;;;;;;;3.70;1.60;;;;;;;2.60;75.80;98467.38;4950390;29;20094;-74
2021/11/26 11:24:13;;;;;;;2.13;1.35;;;;;;;2.03;78.08;98473.72;4967841;29;20030;-74
2021/11/26 11:26:40;;;;;;;0.50;0.50;;;;;;;1.71;77.89;98474.72;4967911;29;20051;-74
2021/11/26 11:29:07;;;;;;;1.60;0.70;;;;;;;1.34;79.20;98450.94;4967690;29;20023;-74
2021/11/26 11:31:32;;;;;;;6.20;1.00;;;;;;;1.24;79.65;98474.81;4982357;28;20482;-75
2021/11/26 11:33:59;;;;;;;2.30;1.20;;;;;;;1.07;79.84;98467.19;4967890;29;20055;-74
2021/11/26 11:36:25;;;;;;;2.45;1.00;;;;;;;0.93;80.97;98465.50;4967772;29;20030;-76
2021/11/26 11:39:00;;;;;;;2.40;1.17;;;;;;;0.99;80.85;98472.31;4967789;29;20031;-74
2021/11/26 11:41:26;;;;;;;4.88;1.40;;;;;;;0.81;81.05;98455.28;4967895;29;20031;-75
2021/11/26 11:43:51;;;;;;;1.48;0.93;;;;;;;0.81;80.88;98450.16;4967718;29;20038;-76
2021/11/26 11:46:18;;;;;;;1.20;0.70;;;;;;;0.74;82.03;98460.38;4967522;29;20019;-75